Time;durP1;ratioP1;P1;durP2;ratioP2;P2;SDS_P1;SDS_P2;PMS_P1;PMS_P2;Temp;Humidity;BMP_temperature;BMP_pressure;BME280_temperature;BME280_humidity;BME280_pressure;Samples;Min_cycle;Max_cycle;Signal;HPM_P1;HPM_P2
2022/07/17 00:00:42;;;;;;;6.55;4.65;;;;;;;21.30;nan;100916.19;5013093;28;20080;-69
2022/07/17 00:03:12;;;;;;;6.63;4.53;;;;;;;21.31;nan;100882.97;5010022;28;20026;-71
2022/07/17 00:05:38;;;;;;;8.45;4.53;;;;;;;21.28;nan;100888.06;5007414;28;20092;-70
2022/07/17 00:08:08;;;;;;;9.02;5.28;;;;;;;21.24;nan;100952.94;5009573;28;20041;-69
2022/07/17 00:10:34;;;;;;;6.90;4.68;;;;;;;21.21;nan;100889.22;5010698;28;20038;-69
2022/07/17 00:13:00;;;;;;;8.65;4.82;;;;;;;21.27;nan;100911.41;5011010;28;20137;-68
2022/07/17 00:15:26;;;;;;;8.50;5.05;;;;;;;21.23;nan;100918.38;5010864;28;20160;-69
2022/07/17 00:17:51;;;;;;;8.50;5.75;;;;;;;;;;5010150;28;20079;-69
2022/07/17 00:20:16;;;;;;;9.17;4.60;;;;;;;21.16;nan;100908.00;5011159;28;20034;-69
2022/07/17 00:22:43;;;;;;;7.50;5.22;;;;;;;;;;5009932;28;20758;-70
2022/07/17 00:25:09;;;;;;;10.30;5.57;;;;;;;21.11;nan;100920.66;5008949;28;20049;-69
2022/07/17 00:27:36;;;;;;;11.25;5.78;;;;;;;21.08;nan;100932.72;5004438;28;20506;-69
2022/07/17 00:30:03;;;;;;;5.75;4.72;;;;;;;21.04;nan;100897.69;5011386;28;20041;-70
2022/07/17 00:32:29;;;;;;;6.60;5.20;;;;;;;21.00;nan;100899.34;4993811;28;20034;-68
2022/07/17 00:34:55;;;;;;;9.82;5.82;;;;;;;20.93;nan;100914.16;5011478;28;20045;-69
2022/07/17 00:37:20;;;;;;;7.70;5.32;;;;;;;21.00;nan;100928.78;5007162;28;20437;-68
2022/07/17 00:39:46;;;;;;;9.05;5.90;;;;;;;20.93;nan;100944.38;5008207;28;20046;-71
2022/07/17 00:42:15;;;;;;;7.78;5.43;;;;;;;20.89;nan;100926.50;5008963;28;20053;-70
2022/07/17 00:44:42;;;;;;;7.88;5.72;;;;;;;20.79;nan;101005.78;5010430;28;20061;-69
2022/07/17 00:47:16;;;;;;;9.95;6.40;;;;;;;20.70;nan;100910.31;5007727;28;20126;-69
2022/07/17 00:49:41;;;;;;;13.55;8.50;;;;;;;;;;5012255;28;20502;-69
2022/07/17 00:52:08;;;;;;;12.32;7.95;;;;;;;20.53;nan;100922.19;5008280;28;20041;-69
2022/07/17 00:54:35;;;;;;;11.27;7.57;;;;;;;;;;5008766;28;20384;-68
2022/07/17 00:57:05;;;;;;;14.35;8.05;;;;;;;20.49;nan;100877.53;5008946;28;20369;-69
2022/07/17 00:59:33;;;;;;;12.45;7.40;;;;;;;20.50;nan;100949.50;5009854;28;20105;-68
2022/07/17 01:01:58;;;;;;;11.82;6.85;;;;;;;;;;5009935;28;20044;-69
2022/07/17 01:04:23;;;;;;;11.80;6.20;;;;;;;20.54;nan;100950.53;5010962;28;20344;-68
2022/07/17 01:06:49;;;;;;;8.07;5.75;;;;;;;;;;5009818;28;20286;-69
2022/07/17 01:09:14;;;;;;;9.98;5.60;;;;;;;;;;4993812;28;20053;-69
2022/07/17 01:11:39;;;;;;;12.70;6.07;;;;;;;20.47;nan;100954.59;5007564;28;20121;-69
2022/07/17 01:14:05;;;;;;;7.45;4.80;;;;;;;20.47;nan;100951.91;5008925;28;20034;-70
2022/07/17 01:16:32;;;;;;;6.18;4.70;;;;;;;20.42;nan;100912.63;5007967;28;20129;-69
2022/07/17 01:18:58;;;;;;;8.07;4.80;;;;;;;20.40;nan;100934.31;5007027;28;20034;-69
2022/07/17 01:21:24;;;;;;;9.13;4.38;;;;;;;20.38;nan;100963.22;5020554;28;20141;-69
2022/07/17 01:23:49;;;;;;;6.07;3.35;;;;;;;20.37;nan;100907.31;5014970;28;20117;-71
2022/07/17 01:26:15;;;;;;;7.88;3.92;;;;;;;20.43;nan;100957.03;5010717;28;20049;-69
2022/07/17 01:28:40;;;;;;;9.75;4.20;;;;;;;20.44;nan;100950.59;5012303;28;20113;-69
2022/07/17 01:31:06;;;;;;;5.80;3.38;;;;;;;20.42;nan;100947.38;5014694;28;20088;-69
2022/07/17 01:33:31;;;;;;;4.45;2.95;;;;;;;20.46;nan;100936.94;5013706;28;20452;-69
2022/07/17 01:35:57;;;;;;;5.25;3.20;;;;;;;20.47;nan;100925.16;5026769;28;20137;-70
2022/07/17 01:38:23;;;;;;;6.50;3.00;;;;;;;20.42;nan;100935.91;5013137;28;20041;-68
2022/07/17 01:40:48;;;;;;;8.70;3.30;;;;;;;20.49;nan;100950.56;5013587;28;20049;-69
2022/07/17 01:43:13;;;;;;;4.68;2.90;;;;;;;20.48;nan;100946.28;5017155;28;20052;-70
2022/07/17 01:45:39;;;;;;;4.57;3.17;;;;;;;20.47;nan;100955.41;5010195;28;20038;-69
2022/07/17 01:48:04;;;;;;;6.38;3.40;;;;;;;;;;5010075;28;20715;-69
2022/07/17 01:50:30;;;;;;;4.82;3.28;;;;;;;20.37;nan;100977.66;5013510;28;20073;-69
2022/07/17 01:52:55;;;;;;;7.05;3.25;;;;;;;20.36;nan;100975.25;5015821;28;20029;-69
2022/07/17 01:55:21;;;;;;;5.88;3.70;;;;;;;20.33;nan;100992.66;5006765;28;20022;-69
2022/07/17 01:57:46;;;;;;;7.00;3.17;;;;;;;20.36;nan;100951.97;5013104;28;20056;-70
2022/07/17 02:00:16;;;;;;;7.28;3.95;;;;;;;20.33;nan;100939.16;5020092;28;20089;-69
2022/07/17 02:02:42;;;;;;;4.80;3.22;;;;;;;20.31;nan;100946.66;5012202;28;20037;-69
2022/07/17 02:05:07;;;;;;;7.25;3.17;;;;;;;20.31;nan;100959.25;5010551;28;20089;-70
2022/07/17 02:07:34;;;;;;;5.18;3.35;;;;;;;20.19;nan;100952.34;5010808;28;20034;-70
2022/07/17 02:09:59;;;;;;;8.05;4.22;;;;;;;;;;5007514;28;20113;-69
2022/07/17 02:12:25;;;;;;;5.30;3.78;;;;;;;20.14;nan;100935.53;5014131;28;20488;-69
2022/07/17 02:14:50;;;;;;;6.10;3.42;;;;;;;20.14;nan;100930.19;5014676;28;20030;-67
2022/07/17 02:17:15;;;;;;;9.88;3.53;;;;;;;19.95;nan;100946.84;5011170;28;20030;-70
2022/07/17 02:19:41;;;;;;;6.05;3.88;;;;;;;20.12;nan;100970.56;5009915;28;20032;-69
2022/07/17 02:22:07;;;;;;;6.95;3.30;;;;;;;20.08;nan;100969.50;5014109;28;20477;-69
2022/07/17 02:24:32;;;;;;;4.55;3.10;;;;;;;19.98;nan;100972.22;5013092;28;20061;-69
2022/07/17 02:26:58;;;;;;;5.72;3.30;;;;;;;;;;5014070;28;20038;-69
2022/07/17 02:29:23;;;;;;;4.40;2.90;;;;;;;;;;5014322;28;20132;-69
2022/07/17 02:31:50;;;;;;;5.45;2.65;;;;;;;19.93;nan;100981.06;5013623;28;20029;-69
2022/07/17 02:34:15;;;;;;;5.18;2.92;;;;;;;19.84;nan;100931.91;5011215;28;20407;-70
2022/07/17 02:36:40;;;;;;;6.45;3.00;;;;;;;19.85;nan;100978.97;5013432;28;20026;-68
2022/07/17 02:39:06;;;;;;;5.00;2.42;;;;;;;19.83;nan;100983.78;5009873;28;20037;-68
2022/07/17 02:41:31;;;;;;;3.53;2.65;;;;;;;;;;5015580;28;20053;-68
2022/07/17 02:43:57;;;;;;;4.82;2.67;;;;;;;19.71;nan;101042.88;5012652;28;20045;-69
2022/07/17 02:46:22;;;;;;;7.20;2.80;;;;;;;19.58;nan;100970.47;5010108;28;20145;-69
2022/07/17 02:48:47;;;;;;;3.55;2.60;;;;;;;;;;5013388;28;20036;-68
2022/07/17 02:51:13;;;;;;;7.60;2.77;;;;;;;19.52;nan;100967.00;5009720;28;20038;-69
2022/07/17 02:53:38;;;;;;;3.88;2.65;;;;;;;;;;5013879;28;20776;-70
2022/07/17 02:56:03;;;;;;;4.03;2.60;;;;;;;;;;5008589;28;20030;-70
2022/07/17 02:58:29;;;;;;;5.57;2.33;;;;;;;19.30;nan;100944.09;5013387;28;20038;-70
2022/07/17 03:00:54;;;;;;;5.05;2.42;;;;;;;;;;5009931;28;20046;-69
2022/07/17 03:03:20;;;;;;;7.30;2.80;;;;;;;;;;5013209;28;20042;-69
2022/07/17 03:05:46;;;;;;;3.17;2.60;;;;;;;19.22;nan;101035.38;5012721;28;20121;-69
2022/07/17 03:08:11;;;;;;;4.05;2.25;;;;;;;;;;5010856;28;20066;-70
2022/07/17 03:10:37;;;;;;;4.80;2.17;;;;;;;19.18;nan;101012.16;5008120;28;20073;-74
2022/07/17 03:13:03;;;;;;;4.95;2.33;;;;;;;19.10;nan;101011.63;5012480;28;20062;-73
2022/07/17 03:15:28;;;;;;;5.90;2.80;;;;;;;19.07;nan;101014.03;5013242;28;20050;-74
2022/07/17 03:17:54;;;;;;;6.82;2.60;;;;;;;19.06;nan;101015.91;5006737;28;20045;-75
2022/07/17 03:20:19;;;;;;;3.67;2.00;;;;;;;;;;5013457;28;20542;-73
2022/07/17 03:22:44;;;;;;;3.87;2.70;;;;;;;18.99;nan;101001.25;5010255;28;20053;-73
2022/07/17 03:25:10;;;;;;;3.42;2.40;;;;;;;18.96;nan;100996.41;5012242;28;20315;-73
2022/07/17 03:27:35;;;;;;;3.83;2.30;;;;;;;18.85;nan;100979.59;5008730;28;20088;-74
2022/07/17 03:30:01;;;;;;;5.90;2.60;;;;;;;18.86;nan;101035.34;5010809;28;20030;-73
2022/07/17 03:32:26;;;;;;;7.05;2.72;;;;;;;18.84;nan;101016.16;5007969;28;20038;-73
2022/07/17 03:34:52;;;;;;;3.92;2.30;;;;;;;18.65;nan;101018.50;5007679;28;20034;-73
2022/07/17 03:37:17;;;;;;;4.30;2.30;;;;;;;18.73;nan;101024.38;5008075;28;20057;-73
2022/07/17 03:39:43;;;;;;;6.32;2.33;;;;;;;18.72;nan;101012.88;5011466;28;20045;-73
2022/07/17 03:42:08;;;;;;;4.30;2.65;;;;;;;18.74;nan;100984.09;5012539;28;20037;-73
2022/07/17 03:44:33;;;;;;;4.78;2.45;;;;;;;;;;5022545;28;20377;-73
2022/07/17 03:46:59;;;;;;;4.72;2.22;;;;;;;18.68;nan;101082.00;5010084;28;20121;-73
2022/07/17 03:49:25;;;;;;;3.33;2.20;;;;;;;18.63;nan;101089.97;5012526;28;20038;-72
2022/07/17 03:51:50;;;;;;;3.80;2.25;;;;;;;;;;5011278;28;20041;-74
2022/07/17 03:54:16;;;;;;;2.80;2.28;;;;;;;;;;5012025;28;20495;-73
2022/07/17 03:56:41;;;;;;;3.92;2.20;;;;;;;;;;5010321;28;20400;-73
2022/07/17 03:59:07;;;;;;;3.13;2.03;;;;;;;;;;5009018;28;20374;-74
2022/07/17 04:01:32;;;;;;;11.00;2.33;;;;;;;18.66;nan;101040.63;5012767;28;20055;-73
2022/07/17 04:03:58;;;;;;;6.47;2.40;;;;;;;18.69;nan;101038.22;5012887;28;20034;-73
2022/07/17 04:06:23;;;;;;;5.63;2.10;;;;;;;18.58;nan;101041.97;5010343;28;20037;-73
2022/07/17 04:08:48;;;;;;;4.50;2.08;;;;;;;;;;5011582;28;20029;-73
2022/07/17 04:11:14;;;;;;;5.82;2.10;;;;;;;;;;5010896;28;20042;-73
2022/07/17 04:13:39;;;;;;;4.13;1.97;;;;;;;;;;5011902;28;20080;-73
2022/07/17 04:16:05;;;;;;;14.65;2.65;;;;;;;18.63;nan;101089.97;5010723;28;20287;-73
2022/07/17 04:18:31;;;;;;;4.22;2.20;;;;;;;;;;5006070;28;20044;-74
2022/07/17 04:21:00;;;;;;;4.28;1.90;;;;;;;;;;5011368;28;20579;-74
2022/07/17 04:23:29;;;;;;;;;;;;;;;18.60;nan;101063.81;5012121;28;20065;-74
2022/07/17 04:25:55;;;;;;;3.67;2.00;;;;;;;18.45;nan;101015.78;5012031;28;20008;-74
2022/07/17 04:28:20;;;;;;;4.60;1.95;;;;;;;18.65;nan;101036.34;5011483;28;20371;-74
2022/07/17 04:30:46;;;;;;;8.55;1.90;;;;;;;;;;5008837;28;20037;-74
2022/07/17 04:33:12;;;;;;;4.30;2.03;;;;;;;18.69;nan;101067.56;5011427;28;20088;-74
2022/07/17 04:35:37;;;;;;;5.20;2.10;;;;;;;;;;4993613;28;20025;-74
2022/07/17 04:38:04;;;;;;;6.43;2.20;;;;;;;;;;5007108;28;20033;-73
2022/07/17 04:40:29;;;;;;;4.47;1.80;;;;;;;;;;5008543;28;20125;-73
2022/07/17 04:42:54;;;;;;;3.80;1.95;;;;;;;;;;5013343;28;20547;-73
2022/07/17 04:45:20;;;;;;;5.03;2.10;;;;;;;18.95;nan;101040.19;5010333;28;20409;-73
2022/07/17 04:47:45;;;;;;;5.82;1.88;;;;;;;18.96;nan;101065.81;5007950;28;20286;-73
2022/07/17 04:50:10;;;;;;;5.30;2.20;;;;;;;;;;5023563;28;20030;-74
2022/07/17 04:52:36;;;;;;;5.30;2.17;;;;;;;18.97;nan;101078.91;5010644;28;20061;-73
2022/07/17 04:55:02;;;;;;;4.75;2.28;;;;;;;19.07;nan;101073.56;5010456;28;20034;-72
2022/07/17 04:57:28;;;;;;;12.75;1.90;;;;;;;19.12;nan;101096.78;5007367;28;20117;-73
2022/07/17 04:59:54;;;;;;;3.50;1.58;;;;;;;19.11;nan;101097.88;5012301;28;20037;-73
2022/07/17 05:02:19;;;;;;;4.85;1.90;;;;;;;19.18;nan;101089.59;5011158;28;20037;-72
2022/07/17 05:04:46;;;;;;;5.07;2.20;;;;;;;;;;5008918;28;21891;-72
2022/07/17 05:07:11;;;;;;;7.50;2.22;;;;;;;;;;5009406;28;20038;-73
2022/07/17 05:09:37;;;;;;;2.80;1.48;;;;;;;;;;5010470;28;20038;-74
2022/07/17 05:12:03;;;;;;;3.70;1.50;;;;;;;19.53;nan;101118.19;5002377;28;20050;-74
2022/07/17 05:14:28;;;;;;;1.52;1.38;;;;;;;;;;5008586;28;20092;-73
2022/07/17 05:16:53;;;;;;;2.83;1.65;;;;;;;19.57;nan;101111.25;5009673;28;20080;-73
2022/07/17 05:19:19;;;;;;;7.95;1.58;;;;;;;;;;5009279;28;20037;-74
2022/07/17 05:21:44;;;;;;;4.78;1.50;;;;;;;19.57;nan;101162.00;5009489;28;20033;-75
2022/07/17 05:24:09;;;;;;;3.47;1.85;;;;;;;;;;5009008;28;20057;-74
2022/07/17 05:26:34;;;;;;;5.07;1.55;;;;;;;;;;5009782;28;20743;-73
2022/07/17 05:29:00;;;;;;;5.33;1.33;;;;;;;19.87;nan;101123.00;5009784;28;20480;-73
2022/07/17 05:31:25;;;;;;;2.55;1.55;;;;;;;;;;5010629;28;20298;-73
2022/07/17 05:33:50;;;;;;;3.73;1.50;;;;;;;;;;5010103;28;20034;-73
2022/07/17 05:36:16;;;;;;;2.73;1.60;;;;;;;;;;5011940;28;20334;-73
2022/07/17 05:38:41;;;;;;;3.05;1.50;;;;;;;20.23;nan;101123.75;5008544;28;20045;-73
2022/07/17 05:41:07;;;;;;;3.28;1.50;;;;;;;20.32;nan;101127.47;5011816;28;20049;-74
2022/07/17 05:43:32;;;;;;;1.98;1.45;;;;;;;;;;5011369;28;20034;-74
2022/07/17 05:45:58;;;;;;;1.70;1.27;;;;;;;20.42;nan;101128.50;5010364;28;20052;-74
2022/07/17 05:48:24;;;;;;;2.83;1.40;;;;;;;20.54;nan;101140.53;5008852;28;20684;-73
2022/07/17 05:50:50;;;;;;;3.53;1.63;;;;;;;20.51;nan;101079.50;5003756;28;20034;-74
2022/07/17 05:53:15;;;;;;;3.58;1.73;;;;;;;20.73;nan;101145.28;5008655;28;20046;-73
2022/07/17 05:55:41;;;;;;;3.22;1.40;;;;;;;;;;5010045;28;20072;-74
2022/07/17 05:58:06;;;;;;;5.95;1.70;;;;;;;20.99;nan;101149.41;4999115;28;20551;-73
2022/07/17 06:00:32;;;;;;;3.15;1.60;;;;;;;21.08;nan;101135.47;5010734;28;20370;-73
2022/07/17 06:02:58;;;;;;;7.95;1.63;;;;;;;21.16;nan;101154.41;5002519;28;20095;-74
2022/07/17 06:05:25;;;;;;;3.67;1.40;;;;;;;21.03;nan;101133.63;5008446;28;20049;-74
2022/07/17 06:07:51;;;;;;;4.47;1.40;;;;;;;21.24;nan;101145.81;5019474;28;20030;-73
2022/07/17 06:10:17;;;;;;;3.05;1.50;;;;;;;21.12;nan;101115.88;5020324;28;20037;-74
2022/07/17 06:12:42;;;;;;;3.15;1.58;;;;;;;21.32;nan;101152.44;5008256;28;20038;-74
2022/07/17 06:15:08;;;;;;;2.33;1.48;;;;;;;21.29;nan;101128.09;4998092;28;20153;-72
2022/07/17 06:17:33;;;;;;;3.20;2.47;;;;;;;21.42;nan;101098.81;5005735;28;20477;-74
2022/07/17 06:19:59;;;;;;;4.63;1.67;;;;;;;;;;5009195;28;20158;-75
2022/07/17 06:22:24;;;;;;;5.47;1.60;;;;;;;21.76;nan;101154.25;5010063;28;21108;-74
2022/07/17 06:24:50;;;;;;;6.75;1.73;;;;;;;21.77;nan;101125.59;5013220;28;20041;-73
2022/07/17 06:27:15;;;;;;;3.88;1.23;;;;;;;21.75;nan;101101.75;5012109;28;20042;-75
2022/07/17 06:29:41;;;;;;;15.25;1.75;;;;;;;21.88;nan;101164.63;5027272;28;20030;-74
2022/07/17 06:32:06;;;;;;;2.15;1.40;;;;;;;21.97;nan;101178.22;5014552;28;20060;-74
2022/07/17 06:34:32;;;;;;;3.58;1.40;;;;;;;21.99;nan;101213.63;5010477;28;20026;-74
2022/07/17 06:36:57;;;;;;;2.95;1.42;;;;;;;;;;5009460;28;20026;-73
2022/07/17 06:39:22;;;;;;;2.17;1.45;;;;;;;;;;5006914;28;20093;-74
2022/07/17 06:41:48;;;;;;;3.88;1.35;;;;;;;;;;5010911;28;20432;-73
2022/07/17 06:44:13;;;;;;;5.55;1.27;;;;;;;21.99;nan;101155.41;5006809;28;20045;-73
2022/07/17 06:46:39;;;;;;;3.10;1.90;;;;;;;;;;5010836;28;20104;-72
2022/07/17 06:49:04;;;;;;;5.33;1.60;;;;;;;;;;5003895;28;20526;-74
2022/07/17 06:51:29;;;;;;;3.10;1.60;;;;;;;22.15;nan;101177.53;5007707;28;20275;-73
2022/07/17 06:53:55;;;;;;;4.38;1.40;;;;;;;;;;5004427;28;20041;-73
2022/07/17 06:56:20;;;;;;;4.13;1.20;;;;;;;22.21;nan;101172.94;5004892;28;20034;-73
2022/07/17 06:58:46;;;;;;;4.68;1.35;;;;;;;22.23;nan;101174.25;5003853;28;20271;-74
2022/07/17 07:01:11;;;;;;;5.47;1.10;;;;;;;;;;5008931;28;20053;-71
2022/07/17 07:03:37;;;;;;;2.00;1.30;;;;;;;22.43;nan;101148.28;5013499;28;20129;-69
2022/07/17 07:06:02;;;;;;;3.28;1.50;;;;;;;22.50;nan;101213.13;5006293;28;20105;-76
2022/07/17 07:08:28;;;;;;;2.45;0.80;;;;;;;22.55;nan;101188.91;5010730;28;20034;-73
2022/07/17 07:10:53;;;;;;;1.30;0.88;;;;;;;22.39;nan;101131.16;5009039;28;20026;-74
2022/07/17 07:13:19;;;;;;;2.80;1.10;;;;;;;22.46;nan;101196.03;5009864;28;20034;-74
2022/07/17 07:15:44;;;;;;;1.88;1.00;;;;;;;22.51;nan;101195.97;5012542;28;20096;-75
2022/07/17 07:18:10;;;;;;;2.78;1.05;;;;;;;22.54;nan;101186.53;5010188;28;20036;-74
2022/07/17 07:20:35;;;;;;;1.95;0.90;;;;;;;22.44;nan;101166.00;5011772;28;20750;-76
2022/07/17 07:23:01;;;;;;;2.63;0.82;;;;;;;22.55;nan;101207.72;5013570;28;20420;-75
2022/07/17 07:25:26;;;;;;;2.72;0.85;;;;;;;;;;5013032;28;20052;-74
2022/07/17 07:27:52;;;;;;;1.98;0.90;;;;;;;;;;5017180;28;20042;-75
2022/07/17 07:30:17;;;;;;;1.60;0.90;;;;;;;22.77;nan;101209.91;5016292;28;20041;-74
2022/07/17 07:32:43;;;;;;;2.97;0.80;;;;;;;22.84;nan;101158.50;5016433;28;20400;-73
2022/07/17 07:35:09;;;;;;;2.17;0.98;;;;;;;22.86;nan;101269.13;5011015;28;20036;-72
2022/07/17 07:37:36;;;;;;;1.10;0.80;;;;;;;22.91;nan;101207.28;5007318;28;20288;-71
2022/07/17 07:40:02;;;;;;;1.25;0.70;;;;;;;22.83;nan;101202.56;5012979;28;20037;-71
2022/07/17 07:42:28;;;;;;;2.75;1.00;;;;;;;22.84;nan;101183.50;5012514;28;20084;-70
2022/07/17 07:44:54;;;;;;;1.20;0.80;;;;;;;22.92;nan;101209.69;5013791;28;20038;-71
2022/07/17 07:47:19;;;;;;;1.58;0.80;;;;;;;22.97;nan;101187.34;5014899;28;20026;-72
2022/07/17 07:49:45;;;;;;;1.52;0.82;;;;;;;22.93;nan;101213.19;5013733;28;20030;-72
2022/07/17 07:52:10;;;;;;;1.83;0.80;;;;;;;23.01;nan;101217.97;5013478;28;20476;-70
2022/07/17 07:54:36;;;;;;;1.88;0.80;;;;;;;22.91;nan;101314.72;5013497;28;20044;-70
2022/07/17 07:57:02;;;;;;;2.08;0.80;;;;;;;23.06;nan;101273.50;5013631;28;20037;-72
2022/07/17 07:59:28;;;;;;;1.15;0.75;;;;;;;23.10;nan;101226.16;5012651;28;20037;-71
2022/07/17 08:01:54;;;;;;;2.65;0.70;;;;;;;23.07;nan;101216.00;5011098;28;20046;-71
2022/07/17 08:04:19;;;;;;;1.38;0.80;;;;;;;23.00;nan;101240.50;5011780;28;20045;-69
2022/07/17 08:06:45;;;;;;;3.95;0.88;;;;;;;23.06;nan;101236.69;5011249;28;20076;-70
2022/07/17 08:09:10;;;;;;;1.65;0.88;;;;;;;;;;5014520;28;20038;-71
2022/07/17 08:11:35;;;;;;;1.67;0.88;;;;;;;23.23;nan;101235.41;5011571;28;20080;-70
2022/07/17 08:14:01;;;;;;;1.70;0.77;;;;;;;23.18;nan;101244.34;5010687;28;20095;-72
2022/07/17 08:16:26;;;;;;;3.05;0.88;;;;;;;23.19;nan;101237.84;5006916;28;20023;-69
2022/07/17 08:18:52;;;;;;;2.08;0.60;;;;;;;23.22;nan;101231.09;5013806;28;20044;-72
2022/07/17 08:21:17;;;;;;;3.33;0.70;;;;;;;23.12;nan;101226.66;5009965;28;20502;-71
2022/07/17 08:23:43;;;;;;;2.22;0.98;;;;;;;23.24;nan;101293.44;5002153;28;20057;-71
2022/07/17 08:26:08;;;;;;;3.22;1.15;;;;;;;23.23;nan;101240.78;5009173;28;20495;-72
2022/07/17 08:28:34;;;;;;;1.13;0.65;;;;;;;23.23;nan;101257.69;5013058;28;20033;-70
2022/07/17 08:30:59;;;;;;;3.40;0.80;;;;;;;23.23;nan;101235.41;5011993;28;20408;-69
2022/07/17 08:33:25;;;;;;;1.20;0.70;;;;;;;23.24;nan;101352.53;5010639;28;20038;-70
2022/07/17 08:35:50;;;;;;;1.60;0.77;;;;;;;23.40;nan;101241.06;5012338;28;20033;-72
2022/07/17 08:38:16;;;;;;;1.77;0.68;;;;;;;23.45;nan;101256.31;5011060;28;20492;-72
2022/07/17 08:40:43;;;;;;;2.15;0.68;;;;;;;23.34;nan;101185.78;5011989;28;20034;-71
2022/07/17 08:43:09;;;;;;;0.98;0.70;;;;;;;23.40;nan;101226.84;5012095;28;20037;-70
2022/07/17 08:45:35;;;;;;;3.90;0.70;;;;;;;23.53;nan;101258.34;5011226;28;20852;-70
2022/07/17 08:48:01;;;;;;;5.00;1.42;;;;;;;23.60;nan;101233.78;5023293;28;20501;-72
2022/07/17 08:50:33;;;;;;;2.97;0.90;;;;;;;23.60;nan;101244.56;5007952;28;20400;-72
2022/07/17 08:52:59;;;;;;;3.72;1.27;;;;;;;23.42;nan;101254.22;5006061;28;20042;-73
2022/07/17 08:55:26;;;;;;;2.80;1.25;;;;;;;23.54;nan;101244.63;5007152;28;20042;-73
2022/07/17 08:57:52;;;;;;;1.92;1.13;;;;;;;23.75;nan;101271.22;5008548;28;20037;-70
2022/07/17 09:00:20;;;;;;;2.20;0.70;;;;;;;23.71;nan;101256.75;5024393;28;20045;-70
2022/07/17 09:03:15;;;;;;;1.05;0.63;;;;;;;23.75;nan;101258.59;5008303;28;20041;-70
2022/07/17 09:05:41;;;;;;;2.33;0.80;;;;;;;23.88;nan;101285.84;5000323;28;20042;-71
2022/07/17 09:08:09;;;;;;;1.42;0.93;;;;;;;23.83;nan;101261.72;5006462;28;20033;-71
2022/07/17 09:10:36;;;;;;;1.25;1.00;;;;;;;23.80;nan;101254.22;5009348;28;20456;-71
2022/07/17 09:13:12;;;;;;;6.20;1.67;;;;;;;23.87;nan;101254.63;5009192;28;20431;-70
2022/07/17 09:15:38;;;;;;;2.00;0.73;;;;;;;23.86;nan;101298.78;5009914;28;20117;-71
2022/07/17 09:18:03;;;;;;;1.45;0.60;;;;;;;23.87;nan;101254.63;5008935;28;20590;-70
2022/07/17 09:20:29;;;;;;;1.85;0.70;;;;;;;23.95;nan;101254.00;5010039;28;20419;-70
2022/07/17 09:23:03;;;;;;;1.63;1.40;;;;;;;23.94;nan;101239.75;5002861;28;20050;-71
2022/07/17 09:25:43;;;;;;;0.93;0.70;;;;;;;23.97;nan;101259.88;5007774;28;20123;-71
2022/07/17 09:28:10;;;;;;;8.57;1.08;;;;;;;23.96;nan;101272.50;5010925;28;20037;-71
2022/07/17 09:30:39;;;;;;;1.38;0.75;;;;;;;23.97;nan;101252.59;5007714;28;20029;-71
2022/07/17 09:33:06;;;;;;;;;;;;;;;24.03;nan;101274.84;5010564;28;20523;-71
2022/07/17 09:35:32;;;;;;;1.95;0.63;;;;;;;23.89;nan;101242.50;5007040;28;19923;-69
2022/07/17 09:37:57;;;;;;;3.65;1.10;;;;;;;24.04;nan;101272.94;5008101;28;20030;-71
2022/07/17 09:43:08;;;;;;;1.45;0.80;;;;;;;23.98;nan;101299.13;5012349;28;20026;-71
2022/07/17 09:45:35;;;;;;;11.10;1.30;;;;;;;24.02;nan;101261.69;5010773;28;20026;-70
2022/07/17 09:48:03;;;;;;;1.38;0.70;;;;;;;23.88;nan;101326.97;5015296;28;20488;-70
2022/07/17 09:50:29;;;;;;;2.70;1.13;;;;;;;24.00;nan;101259.28;5014912;28;20096;-70
2022/07/17 09:52:56;;;;;;;1.40;0.80;;;;;;;24.05;nan;101261.09;5012400;28;20034;-72
2022/07/17 09:55:27;;;;;;;1.90;0.70;;;;;;;24.03;nan;101255.19;5008667;28;20132;-72
2022/07/17 09:57:54;;;;;;;2.35;0.65;;;;;;;24.12;nan;101266.91;5012300;28;20041;-71
2022/07/17 10:00:22;;;;;;;2.92;0.70;;;;;;;24.09;nan;101245.97;5016190;28;20121;-71
2022/07/17 10:02:48;;;;;;;3.15;1.10;;;;;;;;;;5013230;28;20033;-71
2022/07/17 10:05:15;;;;;;;3.42;0.77;;;;;;;24.09;nan;101225.22;5009315;28;20050;-71
2022/07/17 10:07:45;;;;;;;1.35;0.90;;;;;;;23.99;nan;101245.03;5009868;28;20025;-70
2022/07/17 10:10:15;;;;;;;6.18;1.23;;;;;;;24.20;nan;101279.66;5009786;28;20040;-71
2022/07/17 10:12:49;;;;;;;2.08;1.15;;;;;;;24.25;nan;101263.41;5005658;28;20495;-71
2022/07/17 10:15:15;;;;;;;3.67;1.20;;;;;;;24.23;nan;101224.44;5008544;28;20042;-71
2022/07/17 10:17:40;;;;;;;2.20;0.95;;;;;;;24.30;nan;101239.13;5013029;28;20052;-70
2022/07/17 10:20:07;;;;;;;1.33;0.70;;;;;;;24.47;nan;101256.59;5005113;28;20030;-70
2022/07/17 10:22:44;;;;;;;2.75;0.80;;;;;;;24.48;nan;101263.59;5013838;28;20096;-70
2022/07/17 10:25:15;;;;;;;4.13;1.10;;;;;;;24.60;nan;101261.22;5007820;28;20030;-70
2022/07/17 10:27:53;;;;;;;0.90;0.60;;;;;;;24.56;nan;101257.53;4993755;28;20045;-70
2022/07/17 10:30:29;;;;;;;2.13;0.73;;;;;;;24.54;nan;101297.41;5012267;28;20122;-71
2022/07/17 10:33:00;;;;;;;1.15;0.75;;;;;;;24.60;nan;101248.53;5011970;28;20594;-71
2022/07/17 10:35:28;;;;;;;2.95;0.70;;;;;;;24.61;nan;101250.16;5007525;28;20042;-71
2022/07/17 10:37:57;;;;;;;3.05;0.80;;;;;;;;;;5008380;28;20610;-71
2022/07/17 10:40:25;;;;;;;1.30;0.70;;;;;;;24.78;nan;101252.25;5012582;28;20563;-71
2022/07/17 10:43:04;;;;;;;3.05;0.95;;;;;;;24.80;nan;101230.38;5012295;28;20029;-71
2022/07/17 10:45:38;;;;;;;2.72;0.52;;;;;;;24.83;nan;101256.75;5011382;28;20041;-71
2022/07/17 10:48:13;;;;;;;2.85;0.80;;;;;;;24.79;nan;101261.13;5013256;28;20034;-70
2022/07/17 10:50:41;;;;;;;1.83;0.70;;;;;;;24.94;nan;101251.94;5002662;28;20139;-71
2022/07/17 10:53:20;;;;;;;1.27;0.75;;;;;;;24.85;nan;101257.22;5010276;28;20096;-71
2022/07/17 10:55:48;;;;;;;1.17;0.70;;;;;;;24.85;nan;101230.28;5009868;28;20064;-70
2022/07/17 10:58:17;;;;;;;1.33;0.63;;;;;;;24.87;nan;101243.47;5012048;28;20042;-71
2022/07/17 11:00:43;;;;;;;;;;;;;;;24.82;nan;101247.06;5012496;28;20033;-70
2022/07/17 11:03:10;;;;;;;3.42;0.70;;;;;;;24.86;nan;101256.13;5009167;28;19910;-70
2022/07/17 11:05:36;;;;;;;2.42;0.70;;;;;;;24.88;nan;101212.72;5007733;28;20042;-71
2022/07/17 11:08:06;;;;;;;2.88;0.68;;;;;;;24.87;nan;101219.22;5010056;28;20034;-70
2022/07/17 11:10:32;;;;;;;3.60;0.70;;;;;;;24.85;nan;101216.81;5009769;28;20440;-70
2022/07/17 11:13:16;;;;;;;5.25;0.90;;;;;;;24.98;nan;101255.63;5009964;28;20033;-69
2022/07/17 11:15:47;;;;;;;4.70;0.80;;;;;;;25.02;nan;101252.03;5009902;28;20077;-72
2022/07/17 11:18:16;;;;;;;1.10;0.77;;;;;;;25.03;nan;101229.38;5008072;28;20030;-70
2022/07/17 11:20:48;;;;;;;3.65;0.93;;;;;;;25.18;nan;101244.44;5023688;28;20034;-69
2022/07/17 11:23:14;;;;;;;1.75;0.70;;;;;;;25.14;nan;101300.03;5012271;28;20125;-71
2022/07/17 11:25:39;;;;;;;2.72;0.70;;;;;;;25.23;nan;101249.72;5011011;28;20129;-71
2022/07/17 11:28:05;;;;;;;2.88;0.70;;;;;;;25.36;nan;101271.56;5009673;28;20038;-70
2022/07/17 11:30:30;;;;;;;2.92;0.82;;;;;;;25.45;nan;101264.34;4990147;28;20121;-70
2022/07/17 11:32:57;;;;;;;1.42;0.60;;;;;;;25.45;nan;101284.03;5011364;28;20069;-69
2022/07/17 11:35:23;;;;;;;1.52;0.68;;;;;;;25.37;nan;101238.09;5009301;28;20084;-70
2022/07/17 11:37:50;;;;;;;1.00;0.80;;;;;;;25.37;nan;101235.41;5008709;28;20473;-70
2022/07/17 11:40:16;;;;;;;7.15;1.90;;;;;;;25.45;nan;101253.53;5012287;28;20041;-69
2022/07/17 11:42:42;;;;;;;3.42;1.58;;;;;;;25.39;nan;101230.50;5015805;28;20091;-70
2022/07/17 11:45:08;;;;;;;1.33;0.60;;;;;;;25.45;nan;101221.19;5009828;28;20403;-69
2022/07/17 11:47:34;;;;;;;4.13;0.90;;;;;;;25.35;nan;101202.56;5007273;28;20037;-70
2022/07/17 11:50:08;;;;;;;1.50;0.68;;;;;;;25.52;nan;101220.78;5009681;28;20041;-70
2022/07/17 11:52:48;;;;;;;5.75;0.95;;;;;;;25.51;nan;101230.78;5010356;28;20029;-71
2022/07/17 11:55:14;;;;;;;2.88;1.20;;;;;;;25.57;nan;101226.03;5007165;28;20070;-70
2022/07/17 11:57:48;;;;;;;2.13;1.20;;;;;;;25.58;nan;101223.06;5014670;28;20073;-71
2022/07/17 12:00:19;;;;;;;5.40;1.33;;;;;;;25.68;nan;101232.78;5008244;28;21329;-70
2022/07/17 12:02:45;;;;;;;3.13;0.80;;;;;;;25.67;nan;101218.53;5011229;28;20042;-71
2022/07/17 12:05:11;;;;;;;4.22;1.10;;;;;;;25.83;nan;101218.13;5011232;28;20038;-72
2022/07/17 12:07:46;;;;;;;2.08;0.75;;;;;;;25.80;nan;101211.44;5002620;28;20803;-71
2022/07/17 12:10:16;;;;;;;1.58;0.80;;;;;;;;;;5009686;28;20042;-72
2022/07/17 12:12:53;;;;;;;1.60;0.77;;;;;;;25.77;nan;101217.47;5009168;28;20133;-72